Souderton, PA (18964)

9:31 AM EDT op 29 september 2016 (GMT -0400)
Indian Valley | | Change Station

Hoogte 449 ft 40.31 °N, 75.34 °W | Updated 56 seconds ago

Overcast
Geheel bewolkt
56.9 °F
Voelt als 56.9 °F
N
3.0
Wind Variabel Wind van oost

Vandaag
Hoog -- | Laag -- °F
--% Kans op neerslag
Gisteren
Hoog -- | Laag -- °F
Precip. -- inches
Druk 30.29 inches
Zicht 9.0 mijlen
Wolken Geheel bewolkt 600 ft
Dauwpunt 55 °F
Vochtigheid 93%
Neerslag 0.23 inches
Dikte sneeuw Niet beschikbaar.
6:56 AM 6:45 PM
Afnemende halvemaan, 2% visible
METAR KUKT 291315Z AUTO 08009G18KT 9SM OVC006 13/13 A3029 RMK AO1
Druk 30.29 inches
Zicht 9.0 mijlen
Wolken Geheel bewolkt 600 ft
Dauwpunt 55 °F
Vochtigheid 93%
Neerslag 0.23 inches
Dikte sneeuw Niet beschikbaar.
6:56 AM 6:45 PM
Afnemende halvemaan, 2% visible
METAR KUKT 291315Z AUTO 08009G18KT 9SM OVC006 13/13 A3029 RMK AO1

10-Day Weather Forecast

Almanac

Astronomie

Sep. 29, 2016 Opkomst Ondergang
Werkelijke tijd
Burgerlijke schemering
Nautische schemering
Astronomische schemering
Maan
Golflengte van het zichtbare licht
Daglengte
Tomorrow will be .
, % of the Moon is Illuminated

Extremen vandaag

State Highs State Lows

Community

WunderPhotos

Upload Photos

1,942,470 foto’s ge-upload!

WunderBlog® & News

Nearby

Luchtkwaliteit

  Luchtkwaliteit LK-index Verontreinigende stof
Not available.

Dikte sneeuw

Station Depth Geometrische hoogte

Aardbevingen

Stad Distance Mag. Time & Date
Minimum magnitude displayed is 2.5.

Watertemperatuur langs de kust

Plaats Temperatuur

Stations

Nabije weerstations

Locatie station Temp. Gevoelstemperatuur Dauwpunt Vochtigheid Wind Precip. Hoogte Geactualiseerd Type
                   

Watches & Warnings

There are currently no watches in effect.